createdAt,value
2023-04-25T00:01:14.254Z,12.07
2023-04-25T00:06:16.041Z,15.77
2023-04-25T00:11:17.771Z,18.25
2023-04-25T00:16:19.636Z,14.60
2023-04-25T00:21:22.353Z,12.88
2023-04-25T00:26:24.170Z,13.88
2023-04-25T00:31:25.983Z,14.35
2023-04-25T00:36:28.674Z,14.90
2023-04-25T00:41:31.272Z,16.08
2023-04-25T00:46:33.464Z,18.25
2023-04-25T00:51:36.177Z,18.00
2023-04-25T00:56:38.415Z,18.63
2023-04-25T01:01:40.547Z,17.88
2023-04-25T01:06:42.593Z,18.10
2023-04-25T01:11:44.408Z,17.92
2023-04-25T01:16:46.360Z,14.93
2023-04-25T01:21:48.344Z,14.15
2023-04-25T01:26:51.419Z,20.02
2023-04-25T01:31:59.629Z,18.08
2023-04-25T01:37:02.786Z,14.23
2023-04-25T01:42:04.812Z,13.65
2023-04-25T01:47:06.919Z,12.95
2023-04-25T01:52:08.705Z,13.60
2023-04-25T01:57:12.451Z,15.00
2023-04-25T02:02:16.720Z,14.02
2023-04-25T02:07:19.352Z,16.90
2023-04-25T02:12:28.791Z,14.70
2023-04-25T02:17:30.506Z,14.48
2023-04-25T02:22:32.601Z,8.75
2023-04-25T02:27:34.453Z,13.65
2023-04-25T02:32:36.375Z,18.60
2023-04-25T02:37:39.682Z,14.95
2023-04-25T02:42:42.034Z,12.05
2023-04-25T02:47:43.811Z,16.98
2023-04-25T02:52:47.259Z,12.98
2023-04-25T02:57:53.282Z,10.95
2023-04-25T03:03:07.232Z,11.52
2023-04-25T03:08:09.066Z,15.13
2023-04-25T03:13:13.062Z,12.57
2023-04-25T03:18:17.601Z,14.45
2023-04-25T03:23:19.934Z,15.38
2023-04-25T03:28:23.237Z,14.45
2023-04-25T03:33:25.965Z,16.02
2023-04-25T03:38:28.179Z,13.07
2023-04-25T03:43:30.119Z,17.02
2023-04-25T03:48:39.661Z,13.88
2023-04-25T03:53:42.704Z,16.45
2023-04-25T03:58:50.592Z,20.15
2023-04-25T04:03:55.393Z,13.35
2023-04-25T04:08:57.816Z,15.43
2023-04-25T04:14:00.128Z,17.15
2023-04-25T04:19:03.777Z,17.65
2023-04-25T04:24:09.470Z,26.27
2023-04-25T04:29:23.384Z,22.45
2023-04-25T04:34:40.549Z,18.60
2023-04-25T04:39:42.909Z,22.60
2023-04-25T04:44:59.747Z,20.15
2023-04-25T04:50:22.078Z,20.95
2023-04-25T04:55:42.289Z,14.10
2023-04-25T05:06:23.593Z,16.55
2023-04-25T05:11:45.337Z,16.92
2023-04-25T05:17:09.578Z,20.55
2023-04-25T05:22:40.150Z,20.42
2023-04-25T05:27:54.332Z,16.63
2023-04-25T05:33:14.543Z,14.13
2023-04-25T05:38:17.212Z,18.52
2023-04-25T05:43:37.971Z,15.93
2023-04-25T05:48:56.522Z,18.02
2023-04-25T05:54:13.094Z,14.73
2023-04-25T05:59:15.353Z,15.70
2023-04-25T06:04:17.374Z,12.85
2023-04-25T06:09:19.447Z,16.83
2023-04-25T06:14:21.211Z,12.80
2023-04-25T06:19:25.159Z,13.55
2023-04-25T06:24:27.688Z,10.70
2023-04-25T06:29:29.616Z,13.85
2023-04-25T06:34:31.618Z,11.68
2023-04-25T06:39:34.237Z,8.70
2023-04-25T06:44:36.903Z,9.00
2023-04-25T06:49:42.002Z,9.80
2023-04-25T06:54:46.011Z,9.23
2023-04-25T07:00:10.622Z,8.75
2023-04-25T07:05:13.617Z,14.27
2023-04-25T07:10:16.391Z,14.13
2023-04-25T07:15:18.329Z,12.90
2023-04-25T07:20:23.502Z,12.90
2023-04-25T07:25:25.904Z,13.23
2023-04-25T07:30:28.500Z,12.27
2023-04-25T07:35:30.657Z,12.07
2023-04-25T07:40:32.616Z,11.82
2023-04-25T07:45:40.708Z,12.15
2023-04-25T07:50:46.351Z,11.27
2023-04-25T07:55:48.216Z,13.18
2023-04-25T08:00:52.320Z,10.18
2023-04-25T08:06:13.158Z,12.52
2023-04-25T08:11:38.469Z,10.10
2023-04-25T08:16:41.556Z,11.27
2023-04-25T08:21:43.516Z,12.88
2023-04-25T08:26:50.412Z,11.00
2023-04-25T08:31:55.581Z,14.40
2023-04-25T08:36:57.656Z,15.00
2023-04-25T08:42:22.646Z,13.32
2023-04-25T08:47:27.505Z,11.48
2023-04-25T08:52:36.977Z,10.52
2023-04-25T08:57:40.608Z,11.88
2023-04-25T09:02:45.097Z,11.85
2023-04-25T09:07:48.564Z,13.13
2023-04-25T09:13:07.470Z,11.07
2023-04-25T09:18:34.480Z,12.57
2023-04-25T09:23:46.029Z,11.48
2023-04-25T09:28:50.950Z,11.25
2023-04-25T09:34:02.840Z,9.60
2023-04-25T09:39:20.565Z,9.40
2023-04-25T09:44:30.580Z,11.43
2023-04-25T09:49:33.100Z,8.55
2023-04-25T09:54:41.346Z,9.65
2023-04-25T09:59:48.686Z,9.82
2023-04-25T10:04:54.227Z,10.65
2023-04-25T10:10:07.210Z,8.13
2023-04-25T10:15:10.152Z,9.90
2023-04-25T10:20:12.536Z,11.60
2023-04-25T10:25:15.446Z,9.40
2023-04-25T10:30:17.471Z,10.88
2023-04-25T10:35:25.204Z,9.60
2023-04-25T10:40:28.062Z,11.13
2023-04-25T10:45:29.818Z,8.43
2023-04-25T10:50:40.207Z,10.70
2023-04-25T10:55:52.505Z,8.25
2023-04-25T11:00:57.585Z,9.27
2023-04-25T11:06:02.872Z,8.48
2023-04-25T11:11:05.780Z,10.35
2023-04-25T11:16:12.753Z,10.38
2023-04-25T11:21:15.332Z,10.18
2023-04-25T11:26:17.465Z,12.23
2023-04-25T11:31:22.838Z,12.32
2023-04-25T11:36:25.655Z,11.63
2023-04-25T11:41:27.412Z,11.40
2023-04-25T11:46:29.267Z,11.05
2023-04-25T11:51:32.029Z,11.60
2023-04-25T11:56:34.465Z,10.05
2023-04-25T12:01:39.380Z,11.77
2023-04-25T12:06:43.271Z,11.43
2023-04-25T12:11:56.303Z,10.45
2023-04-25T12:17:02.613Z,14.40
2023-04-25T12:22:20.271Z,9.10
2023-04-25T12:27:22.043Z,9.07
2023-04-25T12:32:27.718Z,10.27
2023-04-25T12:37:29.839Z,9.32
2023-04-25T12:42:32.512Z,9.45
2023-04-25T12:47:36.758Z,11.32
2023-04-25T12:52:38.624Z,8.98
2023-04-25T12:57:42.555Z,7.25
2023-04-25T13:02:46.443Z,6.65
2023-04-25T13:07:50.892Z,5.50
2023-04-25T13:12:52.790Z,7.32
2023-04-25T13:17:54.675Z,11.60
2023-04-25T13:22:56.754Z,12.50
2023-04-25T13:27:58.678Z,9.32
2023-04-25T13:33:04.425Z,9.32
2023-04-25T13:38:09.955Z,9.95
2023-04-25T13:43:11.865Z,9.75
2023-04-25T13:48:13.665Z,14.10
2023-04-25T13:53:15.629Z,8.63
2023-04-25T13:58:20.233Z,12.20
2023-04-25T14:03:22.137Z,9.32
2023-04-25T14:08:23.981Z,9.93
2023-04-25T14:13:26.016Z,8.88
2023-04-25T14:18:27.845Z,8.80
2023-04-25T14:23:29.663Z,8.15
2023-04-25T14:28:32.772Z,10.52
2023-04-25T14:33:35.375Z,10.15
2023-04-25T14:38:38.579Z,9.48
2023-04-25T14:43:43.441Z,9.80
2023-04-25T14:48:46.210Z,8.30
2023-04-25T14:53:48.031Z,9.73
2023-04-25T14:58:49.807Z,6.93
2023-04-25T15:03:52.756Z,11.45
2023-04-25T15:08:56.595Z,6.43
2023-04-25T15:13:58.384Z,8.57
2023-04-25T15:19:00.174Z,9.68
2023-04-25T15:24:02.349Z,10.63
2023-04-25T15:29:05.584Z,6.78
2023-04-25T15:34:08.424Z,7.13
2023-04-25T15:39:10.214Z,9.45
2023-04-25T15:44:11.959Z,6.60
2023-04-25T15:49:13.761Z,8.55
2023-04-25T15:54:16.036Z,8.45
2023-04-25T15:59:17.756Z,6.00
2023-04-25T16:04:19.694Z,7.38
2023-04-25T16:09:22.255Z,7.18
2023-04-25T16:14:24.343Z,8.68
2023-04-25T16:19:26.164Z,9.27
2023-04-25T16:24:27.961Z,9.52
2023-04-25T16:29:30.191Z,5.72
2023-04-25T16:34:32.054Z,10.13
2023-04-25T16:39:33.811Z,7.03
2023-04-25T16:44:35.734Z,4.78
2023-04-25T16:49:39.306Z,7.00
2023-04-25T16:54:41.130Z,5.95
2023-04-25T16:59:42.938Z,6.93
2023-04-25T17:04:44.687Z,4.40
2023-04-25T17:09:46.643Z,7.22
2023-04-25T17:14:49.594Z,7.20
2023-04-25T17:19:54.464Z,7.32
2023-04-25T17:24:57.591Z,9.10
2023-04-25T17:29:59.847Z,7.40
2023-04-25T17:35:01.739Z,5.80
2023-04-25T17:40:05.099Z,5.70
2023-04-25T17:45:08.028Z,5.60
2023-04-25T17:50:09.972Z,5.95
2023-04-25T17:55:11.816Z,7.88
2023-04-25T18:00:14.233Z,8.52
2023-04-25T18:05:16.909Z,6.63
2023-04-25T18:10:18.801Z,4.97
2023-04-25T18:15:22.147Z,7.70
2023-04-25T18:20:23.997Z,5.28
2023-04-25T18:25:25.738Z,8.20
2023-04-25T18:30:27.536Z,6.18
2023-04-25T18:35:29.383Z,6.82
2023-04-25T18:40:31.808Z,6.60
2023-04-25T18:45:33.630Z,8.50
2023-04-25T18:50:35.784Z,6.20
2023-04-25T18:55:38.541Z,6.13
2023-04-25T19:00:40.456Z,7.38
2023-04-25T19:05:42.585Z,8.75
2023-04-25T19:10:44.748Z,7.90
2023-04-25T19:15:47.326Z,8.13
2023-04-25T19:20:49.035Z,8.63
2023-04-25T19:25:50.882Z,7.22
2023-04-25T19:30:54.972Z,6.53
2023-04-25T19:35:56.753Z,8.80
2023-04-25T19:40:58.517Z,6.57
2023-04-25T19:46:00.333Z,7.25
2023-04-25T19:51:02.316Z,8.05
2023-04-25T19:56:04.988Z,8.93
2023-04-25T20:01:06.801Z,8.27
2023-04-25T20:06:08.705Z,7.38
2023-04-25T20:11:12.125Z,10.40
2023-04-25T20:16:19.910Z,8.80
2023-04-25T20:21:22.565Z,9.48
2023-04-25T20:26:25.894Z,7.85
2023-04-25T20:31:27.948Z,6.38
2023-04-25T20:36:30.166Z,6.68
2023-04-25T20:41:32.236Z,8.40
2023-04-25T20:46:35.205Z,7.05
2023-04-25T20:51:37.184Z,8.77
2023-04-25T20:56:39.090Z,8.38
2023-04-25T21:01:41.095Z,6.93
2023-04-25T21:06:42.839Z,6.40
2023-04-25T21:16:47.911Z,5.78
2023-04-25T21:21:49.721Z,5.78
2023-04-25T21:26:51.461Z,6.95
2023-04-25T21:31:53.249Z,7.97
2023-04-25T21:36:55.108Z,10.52
2023-04-25T21:41:56.862Z,5.30
2023-04-25T21:46:58.637Z,10.07
2023-04-25T21:52:00.523Z,7.70
2023-04-25T21:57:02.913Z,9.10
2023-04-25T22:02:04.688Z,6.47
2023-04-25T22:07:06.587Z,7.18
2023-04-25T22:12:08.376Z,8.43
2023-04-25T22:17:12.098Z,7.68
2023-04-25T22:22:14.282Z,7.22
2023-04-25T22:27:16.120Z,12.38
2023-04-25T22:32:18.123Z,8.85
2023-04-25T22:37:19.854Z,8.05
2023-04-25T22:42:21.618Z,9.15
2023-04-25T22:47:24.734Z,6.85
2023-04-25T22:52:26.711Z,8.50
2023-04-25T22:57:28.901Z,8.57
2023-04-25T23:02:30.750Z,7.20
2023-04-25T23:07:34.042Z,7.10
2023-04-25T23:12:35.921Z,9.45
2023-04-25T23:17:38.207Z,12.32
2023-04-25T23:22:40.070Z,6.72
2023-04-25T23:27:43.126Z,9.15
2023-04-25T23:32:45.072Z,8.05
2023-04-25T23:37:49.157Z,6.60
2023-04-25T23:42:51.004Z,9.00
2023-04-25T23:47:52.816Z,8.35
2023-04-25T23:52:54.599Z,13.10
2023-04-25T23:57:56.680Z,9.90
